sensor_id;sensor_type;location;lat;lon;timestamp;P1;durP1;ratioP1;P2;durP2;ratioP2
25982;SDS011;13773;48.868;10.730;2023-08-01T00:02:10;6.73;;;5.07;;
25982;SDS011;13773;48.868;10.730;2023-08-01T00:04:36;6.60;;;4.70;;
25982;SDS011;13773;48.868;10.730;2023-08-01T00:07:02;7.37;;;4.27;;
25982;SDS011;13773;48.868;10.730;2023-08-01T00:09:28;5.73;;;4.30;;
25982;SDS011;13773;48.868;10.730;2023-08-01T00:11:53;7.53;;;4.47;;
25982;SDS011;13773;48.868;10.730;2023-08-01T00:14:20;7.40;;;4.67;;
25982;SDS011;13773;48.868;10.730;2023-08-01T00:16:49;6.03;;;4.70;;
25982;SDS011;13773;48.868;10.730;2023-08-01T00:19:17;8.23;;;4.67;;
25982;SDS011;13773;48.868;10.730;2023-08-01T00:21:43;8.70;;;4.70;;
25982;SDS011;13773;48.868;10.730;2023-08-01T00:24:09;6.03;;;4.60;;
25982;SDS011;13773;48.868;10.730;2023-08-01T00:26:35;6.53;;;5.30;;
25982;SDS011;13773;48.868;10.730;2023-08-01T00:29:00;6.40;;;4.70;;
25982;SDS011;13773;48.868;10.730;2023-08-01T00:31:26;6.63;;;4.90;;
25982;SDS011;13773;48.868;10.730;2023-08-01T00:33:52;5.53;;;4.63;;
25982;SDS011;13773;48.868;10.730;2023-08-01T00:36:18;8.83;;;5.30;;
25982;SDS011;13773;48.868;10.730;2023-08-01T00:38:43;10.93;;;5.70;;
25982;SDS011;13773;48.868;10.730;2023-08-01T00:41:09;10.10;;;5.17;;
25982;SDS011;13773;48.868;10.730;2023-08-01T00:43:35;8.53;;;5.67;;
25982;SDS011;13773;48.868;10.730;2023-08-01T00:46:03;5.60;;;5.00;;
25982;SDS011;13773;48.868;10.730;2023-08-01T00:48:30;8.83;;;5.17;;
25982;SDS011;13773;48.868;10.730;2023-08-01T00:50:59;5.60;;;4.97;;
25982;SDS011;13773;48.868;10.730;2023-08-01T00:53:29;8.50;;;5.40;;
25982;SDS011;13773;48.868;10.730;2023-08-01T00:55:55;7.17;;;4.90;;
25982;SDS011;13773;48.868;10.730;2023-08-01T00:58:22;8.33;;;5.57;;
25982;SDS011;13773;48.868;10.730;2023-08-01T01:00:48;7.00;;;5.20;;
25982;SDS011;13773;48.868;10.730;2023-08-01T01:03:14;8.13;;;5.63;;
25982;SDS011;13773;48.868;10.730;2023-08-01T01:05:43;6.67;;;5.23;;
25982;SDS011;13773;48.868;10.730;2023-08-01T01:08:21;5.93;;;4.73;;
25982;SDS011;13773;48.868;10.730;2023-08-01T01:10:47;8.20;;;5.23;;
25982;SDS011;13773;48.868;10.730;2023-08-01T01:13:12;6.67;;;5.13;;
25982;SDS011;13773;48.868;10.730;2023-08-01T01:15:38;7.67;;;4.60;;
25982;SDS011;13773;48.868;10.730;2023-08-01T01:18:04;7.63;;;5.10;;
25982;SDS011;13773;48.868;10.730;2023-08-01T01:20:34;5.50;;;5.00;;
25982;SDS011;13773;48.868;10.730;2023-08-01T01:23:00;7.03;;;4.70;;
25982;SDS011;13773;48.868;10.730;2023-08-01T01:25:29;8.33;;;4.47;;
25982;SDS011;13773;48.868;10.730;2023-08-01T01:27:56;6.43;;;4.10;;
25982;SDS011;13773;48.868;10.730;2023-08-01T01:30:23;6.10;;;4.33;;
25982;SDS011;13773;48.868;10.730;2023-08-01T01:32:49;8.57;;;4.40;;
25982;SDS011;13773;48.868;10.730;2023-08-01T01:35:16;5.80;;;4.13;;
25982;SDS011;13773;48.868;10.730;2023-08-01T01:37:41;6.93;;;4.30;;
25982;SDS011;13773;48.868;10.730;2023-08-01T01:40:07;8.90;;;4.40;;
25982;SDS011;13773;48.868;10.730;2023-08-01T01:42:33;7.77;;;4.23;;
25982;SDS011;13773;48.868;10.730;2023-08-01T01:44:59;6.10;;;3.97;;
25982;SDS011;13773;48.868;10.730;2023-08-01T01:47:24;6.40;;;4.40;;
25982;SDS011;13773;48.868;10.730;2023-08-01T01:49:50;5.80;;;4.03;;
25982;SDS011;13773;48.868;10.730;2023-08-01T01:52:16;6.77;;;4.40;;
25982;SDS011;13773;48.868;10.730;2023-08-01T01:54:41;5.60;;;4.43;;
25982;SDS011;13773;48.868;10.730;2023-08-01T01:57:07;5.27;;;4.27;;
25982;SDS011;13773;48.868;10.730;2023-08-01T01:59:33;5.60;;;4.20;;
25982;SDS011;13773;48.868;10.730;2023-08-01T02:01:58;4.90;;;3.77;;
25982;SDS011;13773;48.868;10.730;2023-08-01T02:04:24;5.90;;;3.70;;
25982;SDS011;13773;48.868;10.730;2023-08-01T02:06:50;4.80;;;3.70;;
25982;SDS011;13773;48.868;10.730;2023-08-01T02:09:18;5.43;;;4.27;;
25982;SDS011;13773;48.868;10.730;2023-08-01T02:11:44;4.77;;;3.80;;
25982;SDS011;13773;48.868;10.730;2023-08-01T02:14:09;5.37;;;4.43;;
25982;SDS011;13773;48.868;10.730;2023-08-01T02:16:35;6.23;;;4.20;;
25982;SDS011;13773;48.868;10.730;2023-08-01T02:19:01;8.13;;;4.43;;
25982;SDS011;13773;48.868;10.730;2023-08-01T02:21:26;4.47;;;3.90;;
25982;SDS011;13773;48.868;10.730;2023-08-01T02:23:52;6.00;;;3.80;;
25982;SDS011;13773;48.868;10.730;2023-08-01T02:26:18;6.97;;;4.20;;
25982;SDS011;13773;48.868;10.730;2023-08-01T02:28:43;5.90;;;4.13;;
25982;SDS011;13773;48.868;10.730;2023-08-01T02:31:09;10.03;;;4.53;;
25982;SDS011;13773;48.868;10.730;2023-08-01T02:33:36;6.10;;;4.33;;
25982;SDS011;13773;48.868;10.730;2023-08-01T02:36:01;7.00;;;4.87;;
25982;SDS011;13773;48.868;10.730;2023-08-01T02:38:27;5.97;;;4.33;;
25982;SDS011;13773;48.868;10.730;2023-08-01T02:40:53;7.37;;;5.10;;
25982;SDS011;13773;48.868;10.730;2023-08-01T02:43:18;6.60;;;4.87;;
25982;SDS011;13773;48.868;10.730;2023-08-01T02:45:44;5.73;;;5.00;;
25982;SDS011;13773;48.868;10.730;2023-08-01T02:48:10;7.03;;;4.67;;
25982;SDS011;13773;48.868;10.730;2023-08-01T02:50:36;5.67;;;4.40;;
25982;SDS011;13773;48.868;10.730;2023-08-01T02:53:04;10.63;;;5.27;;
25982;SDS011;13773;48.868;10.730;2023-08-01T02:55:30;8.87;;;5.43;;
25982;SDS011;13773;48.868;10.730;2023-08-01T02:57:55;7.83;;;5.43;;
25982;SDS011;13773;48.868;10.730;2023-08-01T03:00:21;6.67;;;5.00;;
25982;SDS011;13773;48.868;10.730;2023-08-01T03:02:47;7.27;;;5.00;;
25982;SDS011;13773;48.868;10.730;2023-08-01T03:05:12;6.23;;;5.33;;
25982;SDS011;13773;48.868;10.730;2023-08-01T03:07:38;9.77;;;6.23;;
25982;SDS011;13773;48.868;10.730;2023-08-01T03:10:04;8.43;;;5.53;;
25982;SDS011;13773;48.868;10.730;2023-08-01T03:12:31;7.90;;;5.90;;
25982;SDS011;13773;48.868;10.730;2023-08-01T03:14:57;8.33;;;5.43;;
25982;SDS011;13773;48.868;10.730;2023-08-01T03:17:23;9.87;;;5.53;;
25982;SDS011;13773;48.868;10.730;2023-08-01T03:19:49;7.80;;;5.60;;
25982;SDS011;13773;48.868;10.730;2023-08-01T03:22:15;8.13;;;5.77;;
25982;SDS011;13773;48.868;10.730;2023-08-01T03:24:41;7.77;;;5.93;;
25982;SDS011;13773;48.868;10.730;2023-08-01T03:27:06;8.80;;;5.43;;
25982;SDS011;13773;48.868;10.730;2023-08-01T03:29:32;8.87;;;5.67;;
25982;SDS011;13773;48.868;10.730;2023-08-01T03:31:58;7.43;;;5.63;;
25982;SDS011;13773;48.868;10.730;2023-08-01T03:34:23;11.27;;;5.67;;
25982;SDS011;13773;48.868;10.730;2023-08-01T03:36:49;10.37;;;6.03;;
25982;SDS011;13773;48.868;10.730;2023-08-01T03:39:15;8.87;;;6.00;;
25982;SDS011;13773;48.868;10.730;2023-08-01T03:41:40;8.23;;;5.67;;
25982;SDS011;13773;48.868;10.730;2023-08-01T03:44:06;7.20;;;5.80;;
25982;SDS011;13773;48.868;10.730;2023-08-01T03:46:32;6.70;;;6.00;;
25982;SDS011;13773;48.868;10.730;2023-08-01T03:48:57;7.70;;;6.00;;
25982;SDS011;13773;48.868;10.730;2023-08-01T03:51:23;8.27;;;5.57;;
25982;SDS011;13773;48.868;10.730;2023-08-01T03:53:49;7.43;;;5.20;;
25982;SDS011;13773;48.868;10.730;2023-08-01T03:56:15;7.03;;;5.17;;
25982;SDS011;13773;48.868;10.730;2023-08-01T03:58:40;7.63;;;5.30;;
25982;SDS011;13773;48.868;10.730;2023-08-01T04:01:06;7.00;;;5.73;;
25982;SDS011;13773;48.868;10.730;2023-08-01T04:03:32;7.80;;;6.00;;
25982;SDS011;13773;48.868;10.730;2023-08-01T04:05:58;8.10;;;5.87;;
25982;SDS011;13773;48.868;10.730;2023-08-01T04:08:23;8.97;;;5.87;;
25982;SDS011;13773;48.868;10.730;2023-08-01T04:10:49;7.17;;;5.20;;
25982;SDS011;13773;48.868;10.730;2023-08-01T04:13:15;6.07;;;5.13;;
25982;SDS011;13773;48.868;10.730;2023-08-01T04:15:41;7.60;;;5.60;;
25982;SDS011;13773;48.868;10.730;2023-08-01T04:18:07;6.83;;;4.30;;
25982;SDS011;13773;48.868;10.730;2023-08-01T04:20:32;6.97;;;5.30;;
25982;SDS011;13773;48.868;10.730;2023-08-01T04:22:58;9.73;;;4.80;;
25982;SDS011;13773;48.868;10.730;2023-08-01T04:25:24;5.93;;;4.97;;
25982;SDS011;13773;48.868;10.730;2023-08-01T04:27:51;6.80;;;5.30;;
25982;SDS011;13773;48.868;10.730;2023-08-01T04:30:17;10.03;;;5.27;;
25982;SDS011;13773;48.868;10.730;2023-08-01T04:32:43;7.93;;;5.50;;
25982;SDS011;13773;48.868;10.730;2023-08-01T04:35:09;6.13;;;4.67;;
25982;SDS011;13773;48.868;10.730;2023-08-01T04:37:34;8.03;;;5.70;;
25982;SDS011;13773;48.868;10.730;2023-08-01T04:40:00;8.10;;;5.40;;
25982;SDS011;13773;48.868;10.730;2023-08-01T04:42:26;7.17;;;5.30;;
25982;SDS011;13773;48.868;10.730;2023-08-01T04:44:52;6.67;;;4.90;;
25982;SDS011;13773;48.868;10.730;2023-08-01T04:47:18;6.53;;;5.30;;
25982;SDS011;13773;48.868;10.730;2023-08-01T04:49:44;8.60;;;5.03;;
25982;SDS011;13773;48.868;10.730;2023-08-01T04:52:10;6.57;;;5.07;;
25982;SDS011;13773;48.868;10.730;2023-08-01T04:54:35;8.10;;;4.47;;
25982;SDS011;13773;48.868;10.730;2023-08-01T04:57:01;7.53;;;5.43;;
25982;SDS011;13773;48.868;10.730;2023-08-01T04:59:27;7.97;;;5.30;;
25982;SDS011;13773;48.868;10.730;2023-08-01T05:01:52;7.00;;;4.70;;
25982;SDS011;13773;48.868;10.730;2023-08-01T05:04:18;8.60;;;5.30;;
25982;SDS011;13773;48.868;10.730;2023-08-01T05:06:44;6.37;;;5.00;;
25982;SDS011;13773;48.868;10.730;2023-08-01T05:09:09;5.70;;;4.80;;
25982;SDS011;13773;48.868;10.730;2023-08-01T05:11:35;8.07;;;5.10;;
25982;SDS011;13773;48.868;10.730;2023-08-01T05:14:01;7.63;;;5.07;;
25982;SDS011;13773;48.868;10.730;2023-08-01T05:16:26;8.77;;;5.67;;
25982;SDS011;13773;48.868;10.730;2023-08-01T05:18:52;8.83;;;4.50;;
25982;SDS011;13773;48.868;10.730;2023-08-01T05:21:18;5.47;;;4.50;;
25982;SDS011;13773;48.868;10.730;2023-08-01T05:23:43;5.70;;;5.10;;
25982;SDS011;13773;48.868;10.730;2023-08-01T05:26:09;9.17;;;4.73;;
25982;SDS011;13773;48.868;10.730;2023-08-01T05:28:35;7.53;;;5.00;;
25982;SDS011;13773;48.868;10.730;2023-08-01T05:31:00;9.87;;;4.60;;
25982;SDS011;13773;48.868;10.730;2023-08-01T05:33:26;9.27;;;4.77;;
25982;SDS011;13773;48.868;10.730;2023-08-01T05:35:52;8.13;;;4.60;;
25982;SDS011;13773;48.868;10.730;2023-08-01T05:38:17;7.00;;;4.57;;
25982;SDS011;13773;48.868;10.730;2023-08-01T05:40:43;5.97;;;4.83;;
25982;SDS011;13773;48.868;10.730;2023-08-01T05:43:09;6.60;;;4.40;;
25982;SDS011;13773;48.868;10.730;2023-08-01T05:45:35;7.20;;;4.70;;
25982;SDS011;13773;48.868;10.730;2023-08-01T05:48:01;5.50;;;4.80;;
25982;SDS011;13773;48.868;10.730;2023-08-01T05:50:27;6.77;;;4.50;;
25982;SDS011;13773;48.868;10.730;2023-08-01T05:52:52;6.43;;;4.60;;
25982;SDS011;13773;48.868;10.730;2023-08-01T05:55:18;7.13;;;4.83;;
25982;SDS011;13773;48.868;10.730;2023-08-01T05:57:44;5.67;;;4.43;;
25982;SDS011;13773;48.868;10.730;2023-08-01T06:00:10;4.70;;;4.17;;
25982;SDS011;13773;48.868;10.730;2023-08-01T06:02:36;6.73;;;5.00;;
25982;SDS011;13773;48.868;10.730;2023-08-01T06:05:02;6.97;;;4.70;;
25982;SDS011;13773;48.868;10.730;2023-08-01T06:07:28;6.13;;;4.47;;
25982;SDS011;13773;48.868;10.730;2023-08-01T06:09:55;6.90;;;4.33;;
25982;SDS011;13773;48.868;10.730;2023-08-01T06:12:21;5.97;;;4.77;;
25982;SDS011;13773;48.868;10.730;2023-08-01T06:14:47;6.70;;;4.37;;
25982;SDS011;13773;48.868;10.730;2023-08-01T06:17:13;5.63;;;5.07;;
25982;SDS011;13773;48.868;10.730;2023-08-01T06:19:39;6.67;;;4.70;;
25982;SDS011;13773;48.868;10.730;2023-08-01T06:22:05;7.43;;;4.63;;
25982;SDS011;13773;48.868;10.730;2023-08-01T06:24:30;5.93;;;4.40;;
25982;SDS011;13773;48.868;10.730;2023-08-01T06:26:56;5.33;;;4.73;;
25982;SDS011;13773;48.868;10.730;2023-08-01T06:29:22;7.00;;;4.80;;
25982;SDS011;13773;48.868;10.730;2023-08-01T06:31:50;7.07;;;4.87;;
25982;SDS011;13773;48.868;10.730;2023-08-01T06:34:15;7.47;;;5.37;;
25982;SDS011;13773;48.868;10.730;2023-08-01T06:36:41;5.70;;;4.57;;
25982;SDS011;13773;48.868;10.730;2023-08-01T06:39:06;6.67;;;5.27;;
25982;SDS011;13773;48.868;10.730;2023-08-01T06:41:32;6.60;;;4.90;;
25982;SDS011;13773;48.868;10.730;2023-08-01T06:43:58;6.43;;;5.00;;
25982;SDS011;13773;48.868;10.730;2023-08-01T06:46:24;6.17;;;4.67;;
25982;SDS011;13773;48.868;10.730;2023-08-01T06:48:49;5.27;;;4.40;;
25982;SDS011;13773;48.868;10.730;2023-08-01T06:51:15;6.00;;;4.90;;
25982;SDS011;13773;48.868;10.730;2023-08-01T06:53:40;10.10;;;5.13;;
25982;SDS011;13773;48.868;10.730;2023-08-01T06:56:06;6.47;;;4.63;;
25982;SDS011;13773;48.868;10.730;2023-08-01T06:58:32;6.57;;;4.57;;
25982;SDS011;13773;48.868;10.730;2023-08-01T07:00:58;6.90;;;4.97;;
25982;SDS011;13773;48.868;10.730;2023-08-01T07:03:23;6.87;;;4.67;;
25982;SDS011;13773;48.868;10.730;2023-08-01T07:05:49;8.30;;;5.07;;
25982;SDS011;13773;48.868;10.730;2023-08-01T07:08:15;9.30;;;4.93;;
25982;SDS011;13773;48.868;10.730;2023-08-01T07:10:41;7.37;;;5.20;;
25982;SDS011;13773;48.868;10.730;2023-08-01T07:13:06;5.80;;;4.43;;
25982;SDS011;13773;48.868;10.730;2023-08-01T07:15:32;6.23;;;4.57;;
25982;SDS011;13773;48.868;10.730;2023-08-01T07:17:58;5.77;;;4.20;;
25982;SDS011;13773;48.868;10.730;2023-08-01T07:20:24;9.87;;;4.77;;
25982;SDS011;13773;48.868;10.730;2023-08-01T07:22:50;8.80;;;4.90;;
25982;SDS011;13773;48.868;10.730;2023-08-01T07:25:16;6.73;;;4.80;;
25982;SDS011;13773;48.868;10.730;2023-08-01T07:27:42;6.43;;;4.93;;
25982;SDS011;13773;48.868;10.730;2023-08-01T07:30:08;5.83;;;4.73;;
25982;SDS011;13773;48.868;10.730;2023-08-01T07:32:35;6.77;;;5.03;;
25982;SDS011;13773;48.868;10.730;2023-08-01T07:35:02;6.87;;;4.97;;
25982;SDS011;13773;48.868;10.730;2023-08-01T07:37:29;6.73;;;5.40;;
25982;SDS011;13773;48.868;10.730;2023-08-01T07:39:55;5.73;;;4.73;;
25982;SDS011;13773;48.868;10.730;2023-08-01T07:42:22;6.53;;;5.07;;
25982;SDS011;13773;48.868;10.730;2023-08-01T07:44:48;10.00;;;5.83;;
25982;SDS011;13773;48.868;10.730;2023-08-01T07:47:13;6.53;;;5.83;;
25982;SDS011;13773;48.868;10.730;2023-08-01T07:49:39;8.53;;;5.77;;
25982;SDS011;13773;48.868;10.730;2023-08-01T07:52:05;7.77;;;5.90;;
25982;SDS011;13773;48.868;10.730;2023-08-01T07:54:31;8.97;;;6.07;;
25982;SDS011;13773;48.868;10.730;2023-08-01T07:56:56;7.73;;;6.10;;
25982;SDS011;13773;48.868;10.730;2023-08-01T07:59:22;7.73;;;6.37;;
25982;SDS011;13773;48.868;10.730;2023-08-01T08:01:48;10.57;;;6.73;;
25982;SDS011;13773;48.868;10.730;2023-08-01T08:04:14;7.97;;;6.43;;
25982;SDS011;13773;48.868;10.730;2023-08-01T08:06:40;8.33;;;6.73;;
25982;SDS011;13773;48.868;10.730;2023-08-01T08:09:06;8.07;;;6.67;;
25982;SDS011;13773;48.868;10.730;2023-08-01T08:11:32;7.73;;;6.90;;
25982;SDS011;13773;48.868;10.730;2023-08-01T08:13:58;10.27;;;6.73;;
25982;SDS011;13773;48.868;10.730;2023-08-01T08:16:24;10.47;;;6.87;;
25982;SDS011;13773;48.868;10.730;2023-08-01T08:18:50;8.30;;;7.27;;
25982;SDS011;13773;48.868;10.730;2023-08-01T08:21:16;9.60;;;7.50;;
25982;SDS011;13773;48.868;10.730;2023-08-01T08:23:42;8.33;;;6.87;;
25982;SDS011;13773;48.868;10.730;2023-08-01T08:26:07;7.80;;;6.57;;
25982;SDS011;13773;48.868;10.730;2023-08-01T08:28:33;10.00;;;6.67;;
25982;SDS011;13773;48.868;10.730;2023-08-01T08:31:00;10.40;;;6.47;;
25982;SDS011;13773;48.868;10.730;2023-08-01T08:33:30;9.13;;;6.37;;
25982;SDS011;13773;48.868;10.730;2023-08-01T08:35:56;9.53;;;6.80;;
25982;SDS011;13773;48.868;10.730;2023-08-01T08:38:21;8.93;;;7.20;;
25982;SDS011;13773;48.868;10.730;2023-08-01T08:40:52;9.27;;;7.33;;
25982;SDS011;13773;48.868;10.730;2023-08-01T08:43:26;10.20;;;6.83;;
25982;SDS011;13773;48.868;10.730;2023-08-01T08:45:56;8.93;;;6.87;;
25982;SDS011;13773;48.868;10.730;2023-08-01T08:48:22;12.37;;;7.23;;
25982;SDS011;13773;48.868;10.730;2023-08-01T08:50:50;7.77;;;6.27;;
25982;SDS011;13773;48.868;10.730;2023-08-01T08:53:17;8.77;;;7.20;;
25982;SDS011;13773;48.868;10.730;2023-08-01T08:55:43;10.50;;;6.90;;
25982;SDS011;13773;48.868;10.730;2023-08-01T08:58:09;12.33;;;8.57;;
25982;SDS011;13773;48.868;10.730;2023-08-01T09:00:35;9.23;;;7.07;;
25982;SDS011;13773;48.868;10.730;2023-08-01T09:03:02;11.37;;;7.90;;
25982;SDS011;13773;48.868;10.730;2023-08-01T09:05:33;13.13;;;7.97;;
25982;SDS011;13773;48.868;10.730;2023-08-01T09:08:03;11.27;;;7.73;;
25982;SDS011;13773;48.868;10.730;2023-08-01T09:10:32;9.07;;;7.07;;
25982;SDS011;13773;48.868;10.730;2023-08-01T09:12:58;10.17;;;7.20;;
25982;SDS011;13773;48.868;10.730;2023-08-01T09:15:25;9.70;;;7.47;;
25982;SDS011;13773;48.868;10.730;2023-08-01T09:17:54;9.30;;;6.43;;
25982;SDS011;13773;48.868;10.730;2023-08-01T09:20:28;10.37;;;6.93;;
25982;SDS011;13773;48.868;10.730;2023-08-01T09:22:54;7.23;;;6.37;;
25982;SDS011;13773;48.868;10.730;2023-08-01T09:25:19;6.53;;;5.83;;
25982;SDS011;13773;48.868;10.730;2023-08-01T09:27:55;9.20;;;6.27;;
25982;SDS011;13773;48.868;10.730;2023-08-01T09:30:21;11.20;;;7.33;;
25982;SDS011;13773;48.868;10.730;2023-08-01T09:32:56;9.47;;;6.80;;
25982;SDS011;13773;48.868;10.730;2023-08-01T09:35:22;7.37;;;5.97;;
25982;SDS011;13773;48.868;10.730;2023-08-01T09:37:48;7.00;;;5.57;;
25982;SDS011;13773;48.868;10.730;2023-08-01T09:40:14;9.37;;;5.87;;
25982;SDS011;13773;48.868;10.730;2023-08-01T09:42:43;8.90;;;5.90;;
25982;SDS011;13773;48.868;10.730;2023-08-01T09:45:13;6.73;;;5.20;;
25982;SDS011;13773;48.868;10.730;2023-08-01T09:47:40;7.83;;;5.23;;
25982;SDS011;13773;48.868;10.730;2023-08-01T09:50:08;7.07;;;5.10;;
25982;SDS011;13773;48.868;10.730;2023-08-01T09:52:38;7.37;;;5.10;;
25982;SDS011;13773;48.868;10.730;2023-08-01T09:55:04;7.00;;;5.30;;
25982;SDS011;13773;48.868;10.730;2023-08-01T09:57:30;7.67;;;5.10;;
25982;SDS011;13773;48.868;10.730;2023-08-01T09:59:57;6.33;;;5.57;;
25982;SDS011;13773;48.868;10.730;2023-08-01T10:02:24;6.93;;;5.80;;
25982;SDS011;13773;48.868;10.730;2023-08-01T10:04:54;7.33;;;5.13;;
25982;SDS011;13773;48.868;10.730;2023-08-01T10:07:24;6.07;;;5.07;;
25982;SDS011;13773;48.868;10.730;2023-08-01T10:09:57;7.50;;;5.43;;
25982;SDS011;13773;48.868;10.730;2023-08-01T10:12:24;8.30;;;5.30;;
25982;SDS011;13773;48.868;10.730;2023-08-01T10:14:52;6.93;;;5.33;;
25982;SDS011;13773;48.868;10.730;2023-08-01T10:17:18;5.70;;;4.93;;
25982;SDS011;13773;48.868;10.730;2023-08-01T10:19:46;7.87;;;5.50;;
25982;SDS011;13773;48.868;10.730;2023-08-01T10:22:13;6.33;;;5.23;;
25982;SDS011;13773;48.868;10.730;2023-08-01T10:24:39;7.73;;;4.93;;
25982;SDS011;13773;48.868;10.730;2023-08-01T10:29:39;6.07;;;5.20;;
25982;SDS011;13773;48.868;10.730;2023-08-01T10:32:08;9.33;;;5.70;;
25982;SDS011;13773;48.868;10.730;2023-08-01T10:34:35;9.20;;;5.77;;
25982;SDS011;13773;48.868;10.730;2023-08-01T10:37:01;10.33;;;6.50;;
25982;SDS011;13773;48.868;10.730;2023-08-01T10:39:27;7.33;;;5.97;;
25982;SDS011;13773;48.868;10.730;2023-08-01T10:41:57;10.53;;;6.27;;
25982;SDS011;13773;48.868;10.730;2023-08-01T10:44:27;7.27;;;6.03;;
25982;SDS011;13773;48.868;10.730;2023-08-01T10:47:02;7.43;;;5.50;;
25982;SDS011;13773;48.868;10.730;2023-08-01T10:49:35;5.67;;;4.73;;
25982;SDS011;13773;48.868;10.730;2023-08-01T10:52:03;5.20;;;4.33;;
25982;SDS011;13773;48.868;10.730;2023-08-01T10:54:41;5.03;;;4.47;;
25982;SDS011;13773;48.868;10.730;2023-08-01T10:57:07;8.10;;;5.17;;
25982;SDS011;13773;48.868;10.730;2023-08-01T10:59:33;5.83;;;5.20;;
25982;SDS011;13773;48.868;10.730;2023-08-01T11:02:00;7.60;;;5.53;;
25982;SDS011;13773;48.868;10.730;2023-08-01T11:04:26;9.27;;;6.30;;
25982;SDS011;13773;48.868;10.730;2023-08-01T11:06:53;8.67;;;7.07;;
25982;SDS011;13773;48.868;10.730;2023-08-01T11:09:24;9.67;;;6.93;;
25982;SDS011;13773;48.868;10.730;2023-08-01T11:11:52;7.07;;;6.30;;
25982;SDS011;13773;48.868;10.730;2023-08-01T11:14:22;6.23;;;5.50;;
25982;SDS011;13773;48.868;10.730;2023-08-01T11:16:49;6.57;;;5.87;;
25982;SDS011;13773;48.868;10.730;2023-08-01T11:19:28;7.67;;;6.00;;
25982;SDS011;13773;48.868;10.730;2023-08-01T11:21:55;6.77;;;5.23;;
25982;SDS011;13773;48.868;10.730;2023-08-01T11:24:22;6.87;;;5.87;;
25982;SDS011;13773;48.868;10.730;2023-08-01T11:26:49;6.63;;;5.23;;
25982;SDS011;13773;48.868;10.730;2023-08-01T11:29:18;8.93;;;5.83;;
25982;SDS011;13773;48.868;10.730;2023-08-01T11:31:57;7.60;;;6.00;;
25982;SDS011;13773;48.868;10.730;2023-08-01T11:34:25;8.07;;;5.97;;
25982;SDS011;13773;48.868;10.730;2023-08-01T11:36:51;8.93;;;6.10;;
25982;SDS011;13773;48.868;10.730;2023-08-01T11:39:17;7.10;;;6.40;;
25982;SDS011;13773;48.868;10.730;2023-08-01T11:41:44;6.23;;;5.20;;
25982;SDS011;13773;48.868;10.730;2023-08-01T11:44:10;7.33;;;5.47;;
25982;SDS011;13773;48.868;10.730;2023-08-01T11:46:36;6.20;;;5.53;;
25982;SDS011;13773;48.868;10.730;2023-08-01T11:49:06;5.40;;;4.47;;
25982;SDS011;13773;48.868;10.730;2023-08-01T11:51:39;5.80;;;4.30;;
25982;SDS011;13773;48.868;10.730;2023-08-01T11:54:06;5.80;;;4.60;;
25982;SDS011;13773;48.868;10.730;2023-08-01T11:56:32;5.20;;;4.40;;
25982;SDS011;13773;48.868;10.730;2023-08-01T11:58:58;4.93;;;4.47;;
25982;SDS011;13773;48.868;10.730;2023-08-01T12:01:24;5.07;;;4.13;;
25982;SDS011;13773;48.868;10.730;2023-08-01T12:03:51;6.10;;;3.90;;
25982;SDS011;13773;48.868;10.730;2023-08-01T12:06:19;4.17;;;3.70;;
25982;SDS011;13773;48.868;10.730;2023-08-01T12:08:47;4.20;;;3.77;;
25982;SDS011;13773;48.868;10.730;2023-08-01T12:13:45;3.40;;;3.10;;
25982;SDS011;13773;48.868;10.730;2023-08-01T12:16:11;3.47;;;3.07;;
25982;SDS011;13773;48.868;10.730;2023-08-01T12:18:38;4.40;;;3.23;;
25982;SDS011;13773;48.868;10.730;2023-08-01T12:21:04;3.20;;;2.90;;
25982;SDS011;13773;48.868;10.730;2023-08-01T12:23:30;3.60;;;2.90;;
25982;SDS011;13773;48.868;10.730;2023-08-01T12:25:56;2.70;;;2.50;;
25982;SDS011;13773;48.868;10.730;2023-08-01T12:28:22;3.53;;;2.83;;
25982;SDS011;13773;48.868;10.730;2023-08-01T12:30:48;2.83;;;2.60;;
25982;SDS011;13773;48.868;10.730;2023-08-01T12:33:14;2.87;;;2.63;;
25982;SDS011;13773;48.868;10.730;2023-08-01T12:35:40;3.87;;;2.77;;
25982;SDS011;13773;48.868;10.730;2023-08-01T12:38:07;2.70;;;2.50;;
25982;SDS011;13773;48.868;10.730;2023-08-01T12:40:33;2.70;;;2.33;;
25982;SDS011;13773;48.868;10.730;2023-08-01T12:42:59;3.37;;;2.40;;
25982;SDS011;13773;48.868;10.730;2023-08-01T12:45:25;4.23;;;2.30;;
25982;SDS011;13773;48.868;10.730;2023-08-01T12:47:50;3.37;;;2.70;;
25982;SDS011;13773;48.868;10.730;2023-08-01T12:50:16;3.20;;;2.33;;
25982;SDS011;13773;48.868;10.730;2023-08-01T12:52:42;3.27;;;2.50;;
25982;SDS011;13773;48.868;10.730;2023-08-01T12:55:07;3.50;;;2.27;;
25982;SDS011;13773;48.868;10.730;2023-08-01T12:57:33;2.83;;;1.53;;
25982;SDS011;13773;48.868;10.730;2023-08-01T12:59:59;1.67;;;1.20;;
25982;SDS011;13773;48.868;10.730;2023-08-01T13:02:26;1.87;;;1.27;;
25982;SDS011;13773;48.868;10.730;2023-08-01T13:04:52;1.63;;;1.20;;
25982;SDS011;13773;48.868;10.730;2023-08-01T13:07:18;3.20;;;1.50;;
25982;SDS011;13773;48.868;10.730;2023-08-01T13:09:43;2.27;;;1.13;;
25982;SDS011;13773;48.868;10.730;2023-08-01T13:12:09;1.30;;;1.10;;
25982;SDS011;13773;48.868;10.730;2023-08-01T13:14:35;1.20;;;1.10;;
25982;SDS011;13773;48.868;10.730;2023-08-01T13:17:01;1.33;;;1.03;;
25982;SDS011;13773;48.868;10.730;2023-08-01T13:19:27;1.60;;;1.00;;
25982;SDS011;13773;48.868;10.730;2023-08-01T13:21:53;0.90;;;0.90;;
25982;SDS011;13773;48.868;10.730;2023-08-01T13:24:18;0.93;;;0.90;;
25982;SDS011;13773;48.868;10.730;2023-08-01T13:26:44;2.03;;;1.27;;
25982;SDS011;13773;48.868;10.730;2023-08-01T13:29:10;1.43;;;0.90;;
25982;SDS011;13773;48.868;10.730;2023-08-01T13:31:36;1.03;;;0.93;;
25982;SDS011;13773;48.868;10.730;2023-08-01T13:34:01;1.23;;;1.13;;
25982;SDS011;13773;48.868;10.730;2023-08-01T13:36:27;2.20;;;1.10;;
25982;SDS011;13773;48.868;10.730;2023-08-01T13:38:53;2.07;;;1.20;;
25982;SDS011;13773;48.868;10.730;2023-08-01T13:41:18;1.53;;;1.00;;
25982;SDS011;13773;48.868;10.730;2023-08-01T13:43:44;1.00;;;0.93;;
25982;SDS011;13773;48.868;10.730;2023-08-01T13:46:14;1.80;;;0.93;;
25982;SDS011;13773;48.868;10.730;2023-08-01T13:48:41;1.10;;;1.00;;
25982;SDS011;13773;48.868;10.730;2023-08-01T13:51:07;2.50;;;1.00;;
25982;SDS011;13773;48.868;10.730;2023-08-01T13:53:33;1.20;;;1.00;;
25982;SDS011;13773;48.868;10.730;2023-08-01T13:55:59;1.30;;;0.93;;
25982;SDS011;13773;48.868;10.730;2023-08-01T13:58:25;1.90;;;0.90;;
25982;SDS011;13773;48.868;10.730;2023-08-01T14:00:50;1.27;;;1.03;;
25982;SDS011;13773;48.868;10.730;2023-08-01T14:03:16;1.20;;;1.00;;
25982;SDS011;13773;48.868;10.730;2023-08-01T14:05:42;2.03;;;1.10;;
25982;SDS011;13773;48.868;10.730;2023-08-01T14:08:07;3.23;;;1.23;;
25982;SDS011;13773;48.868;10.730;2023-08-01T14:10:33;1.63;;;1.00;;
25982;SDS011;13773;48.868;10.730;2023-08-01T14:12:59;1.70;;;1.20;;
25982;SDS011;13773;48.868;10.730;2023-08-01T14:15:25;1.23;;;1.13;;
25982;SDS011;13773;48.868;10.730;2023-08-01T14:17:50;1.50;;;1.10;;
25982;SDS011;13773;48.868;10.730;2023-08-01T14:20:17;1.37;;;1.20;;
25982;SDS011;13773;48.868;10.730;2023-08-01T14:22:44;1.53;;;1.27;;
25982;SDS011;13773;48.868;10.730;2023-08-01T14:25:10;1.53;;;1.03;;
25982;SDS011;13773;48.868;10.730;2023-08-01T14:27:35;1.47;;;1.30;;
25982;SDS011;13773;48.868;10.730;2023-08-01T14:30:02;2.83;;;1.30;;
25982;SDS011;13773;48.868;10.730;2023-08-01T14:32:28;2.00;;;1.20;;
25982;SDS011;13773;48.868;10.730;2023-08-01T14:34:54;2.93;;;1.27;;